Time;durP1;ratioP1;P1;durP2;ratioP2;P2;SDS_P1;SDS_P2;PMS_P1;PMS_P2;Temp;Humidity;BMP_temperature;BMP_pressure;BME280_temperature;BME280_humidity;BME280_pressure;Samples;Min_cycle;Max_cycle;Signal;HPM_P1;HPM_P2
2024/01/26 00:00:13;;;;;;;;;;;;;;;15.67;40.17;100708.91;5075802;28;1961;-39
2024/01/26 00:02:38;;;;;;;;;;;;;;;15.40;40.64;100708.06;5076191;28;1234;-38
2024/01/26 00:05:04;;;;;;;;;;;;;;;16.72;38.67;100709.47;5075734;28;1046;-38
2024/01/26 00:07:29;;;;;;;;;;;;;;;16.07;39.41;100709.72;5062685;28;1093;-37
2024/01/26 00:09:55;;;;;;;;;;;;;;;15.44;40.91;100708.69;5061531;28;1056;-39
2024/01/26 00:12:20;;;;;;;;;;;;;;;15.32;40.79;100720.13;5075784;28;1026;-38
2024/01/26 00:14:46;;;;;;;;;;;;;;;15.55;41.14;100724.72;5075700;28;1142;-38
2024/01/26 00:17:12;;;;;;;;;;;;;;;17.49;37.11;100713.47;5076087;28;1079;-38
2024/01/26 00:19:39;;;;;;;;;;;;;;;15.85;40.14;100721.84;5076116;28;1166;-38
2024/01/26 00:22:04;;;;;;;;;;;;;;;15.34;41.23;100728.84;5075378;28;1983;-39
2024/01/26 00:24:29;;;;;;;;;;;;;;;16.09;39.92;100732.56;5075662;28;1127;-40
2024/01/26 00:26:55;;;;;;;;;;;;;;;16.52;38.66;100725.94;5075803;28;1087;-40
2024/01/26 00:29:21;;;;;;;;;;;;;;;15.47;40.63;100732.34;5075505;28;1039;-37
2024/01/26 00:31:46;;;;;;;;;;;;;;;15.46;41.24;100737.75;5074567;28;1198;-37
2024/01/26 00:34:12;;;;;;;;;;;;;;;16.73;38.25;100737.75;5071356;28;1154;-37
2024/01/26 00:36:38;;;;;;;;;;;;;;;15.52;40.57;100740.84;5074268;28;1091;-37
2024/01/26 00:39:03;;;;;;;;;;;;;;;15.20;41.23;100737.75;5071216;28;1431;-38
2024/01/26 00:41:29;;;;;;;;;;;;;;;16.35;39.58;100734.31;5075772;28;1968;-38
2024/01/26 00:43:54;;;;;;;;;;;;;;;16.00;39.85;100738.50;5062467;28;971;-37
2024/01/26 00:46:20;;;;;;;;;;;;;;;15.26;41.38;100737.31;5075822;28;1105;-37
2024/01/26 00:48:45;;;;;;;;;;;;;;;15.88;40.40;100734.91;5062603;28;1053;-38
2024/01/26 00:51:11;;;;;;;;;;;;;;;16.19;39.46;100739.84;5069886;28;1130;-37
2024/01/26 00:53:36;;;;;;;;;;;;;;;15.29;41.00;100730.00;5062054;28;1113;-38
2024/01/26 00:56:02;;;;;;;;;;;;;;;15.05;41.24;100736.00;5062224;28;1153;-37
2024/01/26 00:58:28;;;;;;;;;;;;;;;16.78;38.73;100738.28;5065381;28;1198;-38
2024/01/26 01:00:53;;;;;;;;;;;;;;;15.89;39.69;100733.94;5079298;28;1897;-38
2024/01/26 01:03:19;;;;;;;;;;;;;;;15.17;41.33;100731.69;5071985;28;1042;-38
2024/01/26 01:05:44;;;;;;;;;;;;;;;15.53;40.87;100734.56;5072376;28;995;-41
2024/01/26 01:08:10;;;;;;;;;;;;;;;17.46;37.09;100726.16;5077490;28;1094;-37
2024/01/26 01:10:36;;;;;;;;;;;;;;;16.32;39.03;100735.34;5077890;28;1428;-39
2024/01/26 01:13:04;;;;;;;;;;;;;;;15.52;40.77;100730.22;5078567;28;1149;-39
2024/01/26 01:15:30;;;;;;;;;;;;;;;17.16;37.16;100724.88;5078866;28;1110;-38
2024/01/26 01:17:56;;;;;;;;;;;;;;;15.75;40.03;100722.47;5065517;28;1066;-39
2024/01/26 01:20:21;;;;;;;;;;;;;;;15.30;40.98;100713.16;5078956;28;1890;-38
2024/01/26 01:22:47;;;;;;;;;;;;;;;15.94;40.56;100721.19;5078845;28;1011;-38
2024/01/26 01:25:13;;;;;;;;;;;;;;;16.82;38.13;100712.28;5079023;28;1074;-38
2024/01/26 01:27:38;;;;;;;;;;;;;;;15.58;40.60;100713.03;5078898;28;1119;-38
2024/01/26 01:30:04;;;;;;;;;;;;;;;15.24;41.03;100716.22;5066990;28;1137;-37
2024/01/26 01:32:30;;;;;;;;;;;;;;;16.67;38.22;100712.47;5058484;28;1118;-39
2024/01/26 01:34:56;;;;;;;;;;;;;;;15.52;40.71;100703.72;5065579;28;1142;-37
2024/01/26 01:37:21;;;;;;;;;;;;;;;15.04;41.66;100705.16;5078470;28;1213;-37
2024/01/26 01:39:47;;;;;;;;;;;;;;;15.84;40.32;100694.47;5072437;28;1114;-38
2024/01/26 01:42:16;;;;;;;;;;;;;;;16.43;38.84;100700.06;5078360;28;1979;-38
2024/01/26 01:44:42;;;;;;;;;;;;;;;15.35;40.85;100704.03;5078081;28;1182;-38
2024/01/26 01:47:10;;;;;;;;;;;;;;;16.72;38.65;100701.50;5078145;28;1129;-37
2024/01/26 01:49:39;;;;;;;;;;;;;;;15.72;40.43;100705.91;5078138;28;1073;-37
2024/01/26 01:52:08;;;;;;;;;;;;;;;16.38;39.44;100707.53;5077800;28;912;-37
2024/01/26 01:54:34;;;;;;;;;;;;;;;16.87;37.87;100710.16;5078195;28;1105;-40
2024/01/26 01:57:03;;;;;;;;;;;;;;;15.62;40.63;100714.53;5078116;28;1121;-40
2024/01/26 01:59:29;;;;;;;;;;;;;;;15.28;41.21;100709.75;5063639;28;1090;-38
2024/01/26 02:01:55;;;;;;;;;;;;;;;16.69;38.61;100723.84;5059993;28;1976;-40
2024/01/26 02:04:20;;;;;;;;;;;;;;;16.03;39.48;100723.22;5077507;28;1258;-38
2024/01/26 02:06:59;;;;;;;;;;;;;;;15.37;40.81;100733.91;5077852;28;1110;-38
2024/01/26 02:09:24;;;;;;;;;;;;;;;17.21;37.47;100734.22;5077043;28;1106;-38
2024/01/26 02:11:50;;;;;;;;;;;;;;;15.73;40.22;100737.63;5078131;28;1079;-38
2024/01/26 02:14:15;;;;;;;;;;;;;;;15.25;41.21;100740.91;5077775;28;1058;-39
2024/01/26 02:16:51;;;;;;;;;;;;;;;16.69;39.01;100745.09;5077493;28;900;-38
2024/01/26 02:19:17;;;;;;;;;;;;;;;15.62;40.25;100751.66;5077870;28;1066;-38
2024/01/26 02:21:43;;;;;;;;;;;;;;;15.16;41.55;100748.50;5077887;28;1983;-39
2024/01/26 02:24:08;;;;;;;;;;;;;;;16.89;38.18;100756.06;5077619;28;1084;-40
2024/01/26 02:26:34;;;;;;;;;;;;;;;15.83;40.03;100747.63;5077408;28;1178;-37
2024/01/26 02:28:59;;;;;;;;;;;;;;;16.49;39.11;100751.88;5077013;28;901;-37
2024/01/26 02:31:25;;;;;;;;;;;;;;;17.24;37.16;100749.06;5077475;28;1163;-39
2024/01/26 02:33:50;;;;;;;;;;;;;;;15.81;39.82;100755.69;5077030;28;1119;-39
2024/01/26 02:36:16;;;;;;;;;;;;;;;15.33;40.83;100753.66;5077082;28;1071;-40
2024/01/26 02:38:41;;;;;;;;;;;;;;;17.36;37.32;100739.31;5073649;28;1058;-42
2024/01/26 02:41:06;;;;;;;;;;;;;;;15.89;39.95;100741.88;5076940;28;1973;-38
2024/01/26 02:43:32;;;;;;;;;;;;;;;15.37;40.96;100753.34;5073186;28;1174;-39
2024/01/26 02:45:57;;;;;;;;;;;;;;;15.14;41.19;100750.44;5077222;28;1075;-39
2024/01/26 02:48:23;;;;;;;;;;;;;;;17.12;37.62;100742.88;5077275;28;1237;-40
2024/01/26 02:50:49;;;;;;;;;;;;;;;15.82;39.93;100753.88;5076852;28;1137;-41
2024/01/26 02:53:14;;;;;;;;;;;;;;;15.34;40.77;100748.25;5076431;28;924;-39
2024/01/26 02:55:40;;;;;;;;;;;;;;;17.27;37.52;100761.31;5077148;28;1078;-40
2024/01/26 02:58:05;;;;;;;;;;;;;;;15.89;39.95;100757.81;5076318;28;1058;-42
2024/01/26 03:00:31;;;;;;;;;;;;;;;15.27;41.00;100769.00;5076937;28;1967;-40
2024/01/26 03:02:56;;;;;;;;;;;;;;;15.18;40.93;100762.53;5076884;28;1094;-39
2024/01/26 03:05:22;;;;;;;;;;;;;;;16.55;38.80;100779.78;5076295;28;861;-38
2024/01/26 03:07:47;;;;;;;;;;;;;;;16.73;38.17;100777.59;5076579;28;1113;-38
2024/01/26 03:10:13;;;;;;;;;;;;;;;15.55;40.34;100782.19;5076525;28;1027;-38
2024/01/26 03:12:38;;;;;;;;;;;;;;;15.81;40.57;100776.06;5076535;28;1058;-39
2024/01/26 03:15:04;;;;;;;;;;;;;;;16.30;38.66;100781.56;5076668;28;1082;-38
2024/01/26 03:17:30;;;;;;;;;;;;;;;15.35;40.78;100780.91;5075845;28;944;-39
2024/01/26 03:19:55;;;;;;;;;;;;;;;15.18;41.26;100780.25;5076218;28;1170;-37
2024/01/26 03:22:21;;;;;;;;;;;;;;;16.28;39.36;100784.31;5076234;28;1985;-38
2024/01/26 03:24:47;;;;;;;;;;;;;;;16.40;38.63;100793.19;5076375;28;1067;-38
2024/01/26 03:27:12;;;;;;;;;;;;;;;15.54;40.38;100793.75;5062609;28;1026;-38
2024/01/26 03:29:38;;;;;;;;;;;;;;;16.57;39.02;100799.09;5075613;28;2359;-40
2024/01/26 03:32:04;;;;;;;;;;;;;;;15.60;40.48;100797.81;5075654;28;2130;-45
2024/01/26 03:34:30;;;;;;;;;;;;;;;15.15;41.19;100793.66;5067810;28;1861;-37
2024/01/26 03:36:55;;;;;;;;;;;;;;;16.35;39.43;100800.66;5072509;28;2103;-38
2024/01/26 03:39:21;;;;;;;;;;;;;;;16.09;39.23;100798.03;5069772;28;2361;-41
2024/01/26 03:41:46;;;;;;;;;;;;;;;15.31;41.06;100796.16;5075202;28;2101;-40
2024/01/26 03:44:12;;;;;;;;;;;;;;;15.85;40.11;100796.13;5072803;28;1999;-40
2024/01/26 03:46:43;;;;;;;;;;;;;;;15.99;39.38;100798.69;5069239;28;1111;-40
2024/01/26 03:49:09;;;;;;;;;;;;;;;15.88;40.06;100807.34;5075536;28;1304;-40
2024/01/26 03:51:35;;;;;;;;;;;;;;;17.70;36.51;100807.72;5074538;28;1401;-38
2024/01/26 03:54:01;;;;;;;;;;;;;;;15.91;39.58;100816.91;5075632;28;932;-38
2024/01/26 03:56:26;;;;;;;;;;;;;;;15.43;40.97;100810.41;5075606;28;1110;-39
2024/01/26 03:58:53;;;;;;;;;;;;;;;16.57;38.86;100807.06;5062147;28;1031;-38
2024/01/26 04:01:19;;;;;;;;;;;;;;;15.57;40.21;100808.59;5075735;28;1902;-46
2024/01/26 04:03:44;;;;;;;;;;;;;;;15.53;41.20;100818.59;5073354;28;1054;-43
2024/01/26 04:06:10;;;;;;;;;;;;;;;16.40;38.62;100822.41;5073493;28;876;-43
2024/01/26 04:08:35;;;;;;;;;;;;;;;15.27;40.86;100819.38;5066986;28;1308;-42
2024/01/26 04:11:01;;;;;;;;;;;;;;;15.09;41.23;100821.44;5058966;28;1117;-45
2024/01/26 04:13:26;;;;;;;;;;;;;;;15.89;40.41;100822.31;5072549;28;1892;-46
2024/01/26 04:15:52;;;;;;;;;;;;;;;16.37;38.56;100830.59;5068023;28;1391;-45
2024/01/26 04:18:17;;;;;;;;;;;;;;;15.31;40.92;100835.94;5075900;28;1288;-40
2024/01/26 04:20:43;;;;;;;;;;;;;;;14.96;41.46;100824.03;5074806;28;1910;-44
2024/01/26 04:23:08;;;;;;;;;;;;;;;16.99;37.96;100822.66;5075073;28;1347;-44
2024/01/26 04:25:34;;;;;;;;;;;;;;;15.53;40.26;100822.06;5069570;28;1297;-42
2024/01/26 04:27:59;;;;;;;;;;;;;;;15.12;41.27;100823.03;5067416;28;991;-43
2024/01/26 04:30:25;;;;;;;;;;;;;;;15.84;40.00;100816.50;5075323;28;1070;-40
2024/01/26 04:32:50;;;;;;;;;;;;;;;15.65;39.98;100814.22;5077888;28;1218;-43
2024/01/26 04:35:16;;;;;;;;;;;;;;;17.25;37.30;100822.53;5079676;28;1070;-43
2024/01/26 04:37:41;;;;;;;;;;;;;;;17.74;35.91;100819.78;5079296;28;1055;-46
2024/01/26 04:40:07;;;;;;;;;;;;;;;16.00;39.36;100818.94;5079087;28;1035;-44
2024/01/26 04:42:34;;;;;;;;;;;;;;;15.51;40.50;100824.00;5078975;28;1922;-37
2024/01/26 04:44:59;;;;;;;;;;;;;;;15.20;40.76;100822.53;5076385;28;1808;-39
2024/01/26 04:50:13;;;;;;;;;;;;;;;15.50;40.24;100827.56;4913121;23;6923;-42
2024/01/26 04:52:39;;;;;;;;;;;;;;;15.20;41.25;100831.31;4892022;29;1731;-40
2024/01/26 04:55:05;;;;;;;;;;;;;;;16.22;39.24;100829.88;4895907;29;2225;-42
2024/01/26 04:57:30;;;;;;;;;;;;;;;16.81;37.45;100836.34;4903946;29;1926;-40
2024/01/26 04:59:56;;;;;;;;;;;;;;;15.65;40.24;100838.94;4902989;29;2005;-38
2024/01/26 05:02:21;;;;;;;;;;;;;;;15.21;40.77;100838.34;4903665;29;2050;-38
2024/01/26 05:04:47;;;;;;;;;;;;;;;16.87;37.99;100837.69;4901052;29;1174;-38
2024/01/26 05:07:12;;;;;;;;;;;;;;;15.62;40.30;100841.81;4903387;29;1085;-39
2024/01/26 05:09:38;;;;;;;;;;;;;;;15.46;40.70;100835.84;4891187;29;1018;-39
2024/01/26 05:12:04;;;;;;;;;;;;;;;17.01;37.28;100844.66;4900929;29;1239;-37
2024/01/26 05:14:29;;;;;;;;;;;;;;;15.59;40.05;100841.16;4897429;29;1570;-44
2024/01/26 05:16:55;;;;;;;;;;;;;;;15.55;40.47;100846.69;4899375;29;1308;-43
2024/01/26 05:19:20;;;;;;;;;;;;;;;17.50;36.72;100858.78;4873283;29;2870;-44
2024/01/26 05:21:46;;;;;;;;;;;;;;;17.02;37.41;100856.97;4898901;29;1963;-43
2024/01/26 05:24:11;;;;;;;;;;;;;;;16.48;38.48;100854.56;4899222;29;1364;-48
2024/01/26 05:26:38;;;;;;;;;;;;;;;16.07;39.20;100851.22;4890041;29;1042;-48
2024/01/26 05:29:03;;;;;;;;;;;;;;;15.88;39.36;100851.63;4900283;29;1020;-46
2024/01/26 05:31:29;;;;;;;;;;;;;;;15.69;40.09;100852.00;4884213;29;1098;-44
2024/01/26 05:33:54;;;;;;;;;;;;;;;15.56;40.38;100855.50;4884173;29;1048;-46
2024/01/26 05:36:20;;;;;;;;;;;;;;;15.41;40.50;100863.50;4894570;29;1695;-45
2024/01/26 05:38:45;;;;;;;;;;;;;;;15.60;40.47;100861.44;4901608;29;1105;-44
2024/01/26 05:41:12;;;;;;;;;;;;;;;17.06;37.37;100868.22;4898033;29;1910;-47
2024/01/26 05:43:38;;;;;;;;;;;;;;;16.47;38.08;100870.59;4888448;29;1035;-52
2024/01/26 05:46:03;;;;;;;;;;;;;;;15.84;39.40;100866.88;4897469;29;1111;-54
2024/01/26 05:48:29;;;;;;;;;;;;;;;15.51;40.27;100874.38;4897462;29;1146;-47
2024/01/26 05:50:54;;;;;;;;;;;;;;;15.30;40.51;100868.66;4899349;29;1004;-52
2024/01/26 05:53:20;;;;;;;;;;;;;;;16.53;38.21;100872.84;4890267;29;1121;-45
2024/01/26 05:55:45;;;;;;;;;;;;;;;17.35;36.39;100873.25;4897142;29;1372;-47
2024/01/26 05:58:11;;;;;;;;;;;;;;;16.24;38.68;100876.59;4898107;29;1407;-49
2024/01/26 06:00:37;;;;;;;;;;;;;;;15.75;39.64;100871.00;4887896;29;2395;-50
2024/01/26 06:03:03;;;;;;;;;;;;;;;15.45;40.13;100874.75;4902509;29;1312;-49
2024/01/26 06:05:28;;;;;;;;;;;;;;;15.46;40.61;100878.25;4893784;29;1099;-50
2024/01/26 06:07:54;;;;;;;;;;;;;;;16.95;37.63;100883.16;4896533;29;1095;-47
2024/01/26 06:10:19;;;;;;;;;;;;;;;17.00;37.20;100881.00;4884140;29;1131;-48
2024/01/26 06:12:45;;;;;;;;;;;;;;;16.10;38.75;100879.38;4897926;29;1403;-49
2024/01/26 06:15:10;;;;;;;;;;;;;;;15.73;39.62;100877.38;4896193;29;1564;-47
2024/01/26 06:17:36;;;;;;;;;;;;;;;15.41;40.37;100889.19;4898812;29;1324;-49
2024/01/26 06:20:03;;;;;;;;;;;;;;;15.33;40.47;100887.00;4899881;29;1315;-46
2024/01/26 06:22:28;;;;;;;;;;;;;;;16.85;37.45;100884.78;4902468;29;1911;-40
2024/01/26 06:24:54;;;;;;;;;;;;;;;16.76;37.55;100892.47;4891511;29;1046;-40
2024/01/26 06:27:20;;;;;;;;;;;;;;;15.97;38.86;100889.91;4902609;29;1162;-43
2024/01/26 06:29:46;;;;;;;;;;;;;;;15.61;39.80;100898.47;4900922;29;1074;-43
2024/01/26 06:32:12;;;;;;;;;;;;;;;15.41;40.56;100894.47;4901801;29;1121;-38
2024/01/26 06:34:41;;;;;;;;;;;;;;;16.83;37.58;100892.84;4888479;29;1046;-40
2024/01/26 06:37:07;;;;;;;;;;;;;;;16.84;37.29;100899.03;4891180;29;1030;-39
2024/01/26 06:39:33;;;;;;;;;;;;;;;16.08;38.89;100897.19;4899814;29;1190;-43
2024/01/26 06:41:58;;;;;;;;;;;;;;;15.64;39.85;100895.59;4898211;29;1910;-43
2024/01/26 06:44:24;;;;;;;;;;;;;;;16.00;39.14;100906.50;4900384;29;1156;-40
2024/01/26 06:46:49;;;;;;;;;;;;;;;17.32;36.76;100913.34;4899196;29;1189;-40
2024/01/26 06:49:15;;;;;;;;;;;;;;;16.49;38.01;100908.53;4901368;29;1285;-42
2024/01/26 06:51:40;;;;;;;;;;;;;;;15.94;39.14;100906.91;4901676;29;1230;-40
2024/01/26 06:54:06;;;;;;;;;;;;;;;15.62;39.84;100908.13;4895378;29;1070;-40
2024/01/26 06:56:31;;;;;;;;;;;;;;;15.34;40.41;100895.81;4892291;29;1182;-42
2024/01/26 06:58:57;;;;;;;;;;;;;;;16.67;37.71;100905.53;4901924;29;1170;-44
2024/01/26 07:01:22;;;;;;;;;;;;;;;17.18;36.62;100911.72;4889638;29;1899;-40
2024/01/26 07:03:48;;;;;;;;;;;;;;;16.14;38.89;100894.09;4898567;29;1106;-43
2024/01/26 07:06:13;;;;;;;;;;;;;;;15.77;39.64;100895.63;4889632;29;1143;-42
2024/01/26 07:08:39;;;;;;;;;;;;;;;15.42;40.16;100890.88;4899951;29;1336;-40
2024/01/26 07:11:04;;;;;;;;;;;;;;;16.62;37.90;100885.47;4900818;29;1323;-40
2024/01/26 07:13:30;;;;;;;;;;;;;;;17.52;36.08;100884.44;4900545;29;1331;-44
2024/01/26 07:15:55;;;;;;;;;;;;;;;16.54;37.80;100890.47;4900719;29;1410;-39
2024/01/26 07:18:21;;;;;;;;;;;;;;;15.94;39.28;100890.97;4894153;29;1090;-39
2024/01/26 07:20:46;;;;;;;;;;;;;;;15.66;39.76;100892.84;4898798;29;1986;-40
2024/01/26 07:23:12;;;;;;;;;;;;;;;15.43;40.25;100904.03;4901635;29;1136;-40
2024/01/26 07:25:37;;;;;;;;;;;;;;;16.67;37.84;100914.34;4900822;29;1050;-41
2024/01/26 07:28:05;;;;;;;;;;;;;;;17.37;36.44;100913.84;4901320;29;1151;-43
2024/01/26 07:30:30;;;;;;;;;;;;;;;16.34;38.38;100915.75;4896269;29;1126;-42
2024/01/26 07:32:56;;;;;;;;;;;;;;;15.84;39.01;100922.59;4901274;29;1050;-40
2024/01/26 07:35:22;;;;;;;;;;;;;;;15.56;39.65;100927.09;4901202;29;1138;-42
2024/01/26 07:37:47;;;;;;;;;;;;;;;15.85;39.50;100926.94;4901301;29;1089;-40
2024/01/26 07:40:13;;;;;;;;;;;;;;;17.17;36.79;100921.50;4897755;29;1344;-43
2024/01/26 07:42:39;;;;;;;;;;;;;;;16.73;37.29;100923.72;4891345;29;1923;-39
2024/01/26 07:45:04;;;;;;;;;;;;;;;16.03;39.01;100926.69;4886914;29;978;-43
2024/01/26 07:47:30;;;;;;;;;;;;;;;15.66;39.40;100922.84;4891296;29;1130;-38
2024/01/26 07:49:55;;;;;;;;;;;;;;;15.46;39.94;100939.25;4900401;29;1177;-41
2024/01/26 07:52:21;;;;;;;;;;;;;;;16.73;37.54;100935.16;4891645;29;1078;-41
2024/01/26 07:54:48;;;;;;;;;;;;;;;17.36;36.19;100936.97;4895502;29;915;-43
2024/01/26 07:57:14;;;;;;;;;;;;;;;16.34;38.18;100942.31;4893413;29;1150;-37
2024/01/26 07:59:39;;;;;;;;;;;;;;;15.87;39.16;100945.41;4889051;29;1082;-42
2024/01/26 08:02:05;;;;;;;;;;;;;;;15.55;39.63;100938.63;4900423;29;1991;-41
2024/01/26 08:04:30;;;;;;;;;;;;;;;15.44;40.29;100928.75;4900881;29;1038;-42
2024/01/26 08:06:56;;;;;;;;;;;;;;;16.97;37.31;100947.66;4892907;29;1070;-45
2024/01/26 08:09:21;;;;;;;;;;;;;;;17.00;36.76;100943.94;4900149;29;1292;-45
2024/01/26 08:11:47;;;;;;;;;;;;;;;16.16;38.46;100943.47;4899948;29;1106;-40
2024/01/26 08:14:12;;;;;;;;;;;;;;;15.72;39.14;100940.19;4900706;29;1483;-44
2024/01/26 08:16:38;;;;;;;;;;;;;;;15.45;39.73;100938.38;4900503;29;1046;-42
2024/01/26 08:19:03;;;;;;;;;;;;;;;16.25;38.43;100949.09;4898326;29;1075;-41
2024/01/26 08:21:29;;;;;;;;;;;;;;;17.37;36.12;100951.94;4896484;29;1977;-44
2024/01/26 08:23:54;;;;;;;;;;;;;;;16.71;37.17;100953.03;4898061;29;1096;-43
2024/01/26 08:26:20;;;;;;;;;;;;;;;16.06;38.60;100936.25;4891543;29;1134;-41
2024/01/26 08:28:45;;;;;;;;;;;;;;;15.67;39.58;100942.28;4914496;29;1103;-41
2024/01/26 08:31:11;;;;;;;;;;;;;;;15.52;39.91;100950.31;4896318;29;1073;-44
2024/01/26 08:33:36;;;;;;;;;;;;;;;17.02;36.99;100947.34;4898920;29;1022;-44
2024/01/26 08:36:02;;;;;;;;;;;;;;;17.00;36.71;100950.09;4892274;29;1073;-46
2024/01/26 08:38:28;;;;;;;;;;;;;;;16.18;38.29;100951.34;4900173;29;1099;-45
2024/01/26 08:40:53;;;;;;;;;;;;;;;15.84;39.17;100948.25;4898262;29;1910;-40
2024/01/26 08:43:19;;;;;;;;;;;;;;;15.54;39.63;100956.34;4900117;29;988;-42
2024/01/26 08:45:44;;;;;;;;;;;;;;;15.70;39.63;100960.63;4896355;29;1130;-40
2024/01/26 08:48:10;;;;;;;;;;;;;;;17.09;36.82;100964.59;4891800;29;1335;-41
2024/01/26 08:50:36;;;;;;;;;;;;;;;17.11;36.39;100964.47;4886117;29;1046;-44
2024/01/26 08:53:02;;;;;;;;;;;;;;;16.28;37.91;100957.69;4892376;29;1190;-39
2024/01/26 08:55:27;;;;;;;;;;;;;;;15.90;39.12;100966.41;4893308;29;1305;-40
2024/01/26 08:57:53;;;;;;;;;;;;;;;15.55;39.65;100967.78;4899359;29;1292;-40
2024/01/26 09:00:19;;;;;;;;;;;;;;;16.48;38.18;100973.25;4899712;29;1173;-40
2024/01/26 09:02:45;;;;;;;;;;;;;;;17.48;35.93;100975.06;4889245;29;1978;-39
2024/01/26 09:05:11;;;;;;;;;;;;;;;16.54;37.58;100986.09;4900232;29;1074;-40
2024/01/26 09:07:37;;;;;;;;;;;;;;;15.98;38.51;100981.84;4888608;29;1451;-43
2024/01/26 09:10:03;;;;;;;;;;;;;;;15.66;39.49;100986.50;4913367;29;1272;-42
2024/01/26 09:12:28;;;;;;;;;;;;;;;15.61;39.82;100993.94;4896612;29;1150;-42
2024/01/26 09:14:54;;;;;;;;;;;;;;;17.06;36.72;100995.81;4899644;29;1114;-43
2024/01/26 09:17:20;;;;;;;;;;;;;;;17.17;36.31;100989.75;4896340;29;1178;-41
2024/01/26 09:19:46;;;;;;;;;;;;;;;16.25;38.14;101003.03;4891599;29;1070;-43
2024/01/26 09:22:11;;;;;;;;;;;;;;;15.87;39.24;101001.97;4894935;29;1984;-38
2024/01/26 09:24:37;;;;;;;;;;;;;;;15.58;39.81;101002.06;4903253;29;1328;-40
2024/01/26 09:27:03;;;;;;;;;;;;;;;15.73;39.37;100997.56;4900136;29;1225;-40
2024/01/26 09:29:28;;;;;;;;;;;;;;;17.16;36.79;101001.34;4902968;29;1066;-41
2024/01/26 09:31:56;;;;;;;;;;;;;;;16.90;37.09;101004.84;4900508;29;1320;-41
2024/01/26 09:34:22;;;;;;;;;;;;;;;16.09;38.55;100997.94;4903623;29;1523;-46
2024/01/26 09:36:47;;;;;;;;;;;;;;;15.78;39.18;101007.91;4898541;29;1483;-40
2024/01/26 09:39:13;;;;;;;;;;;;;;;15.55;39.53;101010.22;4900561;29;1073;-43
2024/01/26 09:41:39;;;;;;;;;;;;;;;15.50;39.98;101018.47;4897620;29;1915;-41
2024/01/26 09:44:04;;;;;;;;;;;;;;;16.97;36.95;101021.22;4897845;29;815;-41
2024/01/26 09:46:33;;;;;;;;;;;;;;;17.26;36.37;101028.97;4897442;29;1150;-41
2024/01/26 09:48:58;;;;;;;;;;;;;;;16.20;38.16;101037.00;4900814;29;1431;-44
2024/01/26 09:51:25;;;;;;;;;;;;;;;15.84;39.22;101030.50;4901261;29;1339;-44
2024/01/26 09:53:51;;;;;;;;;;;;;;;15.58;39.40;101022.44;4903594;29;1387;-43
2024/01/26 09:56:17;;;;;;;;;;;;;;;15.80;39.47;101029.84;4901177;29;1332;-41
2024/01/26 09:58:42;;;;;;;;;;;;;;;17.18;36.76;101041.97;4917281;29;1276;-41
2024/01/26 10:01:08;;;;;;;;;;;;;;;17.05;36.73;101041.97;4899609;29;1911;-41
2024/01/26 10:03:33;;;;;;;;;;;;;;;16.27;38.17;101038.31;4899357;29;1084;-41
2024/01/26 10:05:59;;;;;;;;;;;;;;;15.82;38.93;101038.56;4896899;29;1122;-45
2024/01/26 10:08:24;;;;;;;;;;;;;;;15.61;39.73;101040.81;4893292;29;860;-40
2024/01/26 10:10:50;;;;;;;;;;;;;;;15.81;39.32;101047.47;4902186;29;1090;-44
2024/01/26 10:13:16;;;;;;;;;;;;;;;17.20;36.71;101058.69;4893836;29;1014;-43
2024/01/26 10:15:42;;;;;;;;;;;;;;;17.50;35.96;101050.28;4902217;29;1125;-41
2024/01/26 10:18:07;;;;;;;;;;;;;;;16.40;38.14;101058.72;4895060;29;1151;-40
2024/01/26 10:20:33;;;;;;;;;;;;;;;15.95;39.26;101070.44;4901411;29;1978;-41
2024/01/26 10:22:58;;;;;;;;;;;;;;;15.72;39.45;101067.50;4895485;29;1130;-42
2024/01/26 10:25:24;;;;;;;;;;;;;;;15.50;39.72;101068.00;4892635;29;1122;-45
2024/01/26 10:27:49;;;;;;;;;;;;;;;16.48;38.27;101067.00;4897604;29;1125;-42
2024/01/26 10:30:15;;;;;;;;;;;;;;;17.46;36.14;101058.63;4897146;29;1265;-42
2024/01/26 10:32:40;;;;;;;;;;;;;;;16.51;37.71;101058.88;4887850;29;1476;-43
2024/01/26 10:35:07;;;;;;;;;;;;;;;15.94;39.21;101055.50;4900890;29;1741;-41
2024/01/26 10:37:33;;;;;;;;;;;;;;;15.66;39.75;101067.88;4894085;29;1366;-43
2024/01/26 10:39:59;;;;;;;;;;;;;;;16.22;38.58;101063.44;4901730;29;1352;-41
2024/01/26 10:42:25;;;;;;;;;;;;;;;17.42;36.24;101063.28;4900784;29;1899;-42
2024/01/26 10:44:51;;;;;;;;;;;;;;;16.54;37.91;101063.09;4897797;29;1475;-43
2024/01/26 10:47:18;;;;;;;;;;;;;;;15.96;38.88;101066.84;4900886;29;1136;-44
2024/01/26 10:49:49;;;;;;;;;;;;;;;15.65;39.82;101063.50;4900706;29;1251;-41
2024/01/26 10:52:18;;;;;;;;;;;;;;;15.60;39.72;101065.63;4898234;29;1050;-42
2024/01/26 10:54:44;;;;;;;;;;;;;;;17.15;37.09;101066.13;4902326;29;1328;-48
2024/01/26 10:57:10;;;;;;;;;;;;;;;17.21;36.60;101063.03;4888879;29;909;-43
2024/01/26 10:59:36;;;;;;;;;;;;;;;16.26;38.84;101067.63;4899075;29;1107;-42
2024/01/26 11:02:01;;;;;;;;;;;;;;;15.81;39.47;101071.34;4899931;29;1910;-41
2024/01/26 11:04:30;;;;;;;;;;;;;;;15.61;39.92;101073.50;4915396;29;1134;-42
2024/01/26 11:06:55;;;;;;;;;;;;;;;15.74;39.85;101062.94;4895025;29;1154;-41
2024/01/26 11:09:21;;;;;;;;;;;;;;;17.17;37.10;101072.16;4895529;29;1240;-43
2024/01/26 11:11:50;;;;;;;;;;;;;;;17.12;36.91;101077.81;4894607;29;1206;-43
2024/01/26 11:14:15;;;;;;;;;;;;;;;16.20;38.62;101068.84;4882777;29;1106;-45
2024/01/26 11:16:42;;;;;;;;;;;;;;;15.83;39.55;101071.25;4896337;29;1015;-41
2024/01/26 11:19:07;;;;;;;;;;;;;;;15.59;39.85;101072.72;4894167;29;1091;-43
2024/01/26 11:21:37;;;;;;;;;;;;;;;16.29;38.80;101070.06;4897538;29;1990;-40
2024/01/26 11:24:11;;;;;;;;;;;;;;;17.45;36.38;101072.88;4896479;29;1011;-40
2024/01/26 11:26:37;;;;;;;;;;;;;;;16.43;38.31;101078.91;4898557;29;920;-40
2024/01/26 11:29:12;;;;;;;;;;;;;;;15.85;39.57;101072.00;4893958;29;1093;-41
2024/01/26 11:31:38;;;;;;;;;;;;;;;15.60;40.12;101074.44;4886925;29;1118;-41
2024/01/26 11:34:04;;;;;;;;;;;;;;;16.08;39.25;101083.78;4895195;29;1012;-41
2024/01/26 11:36:32;;;;;;;;;;;;;;;17.34;36.78;101084.25;4900997;29;1026;-39
2024/01/26 11:38:58;;;;;;;;;;;;;;;16.62;37.67;101087.34;4901819;29;1121;-39
2024/01/26 11:41:24;;;;;;;;;;;;;;;16.06;39.24;101088.38;4913988;29;1990;-42
2024/01/26 11:43:50;;;;;;;;;;;;;;;15.67;40.00;101089.00;4891872;29;1023;-42
2024/01/26 11:46:16;;;;;;;;;;;;;;;15.48;40.54;101099.09;4896118;29;1086;-43
2024/01/26 11:48:41;;;;;;;;;;;;;;;16.54;38.31;101094.97;4905458;29;1159;-44
2024/01/26 11:51:07;;;;;;;;;;;;;;;17.44;36.56;101089.78;4888612;29;1150;-39
2024/01/26 11:53:32;;;;;;;;;;;;;;;16.43;38.21;101084.22;4892366;29;1265;-39
2024/01/26 11:55:59;;;;;;;;;;;;;;;15.90;39.28;101086.66;4897338;29;1218;-40
2024/01/26 11:58:24;;;;;;;;;;;;;;;15.59;40.00;101086.00;4897003;29;1134;-42
2024/01/26 12:00:50;;;;;;;;;;;;;;;15.54;40.24;101088.06;4899549;29;1931;-42
2024/01/26 12:03:16;;;;;;;;;;;;;;;16.98;37.43;101092.03;4893510;29;1341;-44
2024/01/26 12:05:42;;;;;;;;;;;;;;;16.93;37.39;101096.81;4899183;29;1138;-41
2024/01/26 12:08:08;;;;;;;;;;;;;;;16.14;39.04;101104.63;4884680;29;1027;-42
2024/01/26 12:10:33;;;;;;;;;;;;;;;15.77;39.60;101101.66;4893961;29;1077;-40
2024/01/26 12:12:59;;;;;;;;;;;;;;;15.48;40.32;101104.38;4888473;29;1011;-42
2024/01/26 12:15:31;;;;;;;;;;;;;;;16.32;38.84;101084.91;4900587;29;1090;-42
2024/01/26 12:18:00;;;;;;;;;;;;;;;17.42;36.58;101095.22;4891139;29;1062;-42
2024/01/26 12:20:25;;;;;;;;;;;;;;;16.51;38.37;101097.84;4881946;29;1197;-45
2024/01/26 12:22:53;;;;;;;;;;;;;;;15.90;39.65;101091.13;4891672;29;1969;-39
2024/01/26 12:25:18;;;;;;;;;;;;;;;15.59;40.12;101098.38;4882120;29;1066;-44
2024/01/26 12:27:44;;;;;;;;;;;;;;;16.12;39.16;101105.69;4889398;29;1174;-42
2024/01/26 12:30:10;;;;;;;;;;;;;;;17.32;36.94;101110.09;4899593;29;1039;-44
2024/01/26 12:32:37;;;;;;;;;;;;;;;16.50;38.16;101110.25;4900819;29;1018;-40
2024/01/26 12:35:02;;;;;;;;;;;;;;;15.84;39.60;101112.75;4900231;29;1240;-41
2024/01/26 12:37:28;;;;;;;;;;;;;;;15.49;40.53;101121.97;4894916;29;1419;-42
2024/01/26 12:39:53;;;;;;;;;;;;;;;15.78;39.96;101114.00;4896087;29;1666;-43
2024/01/26 12:42:19;;;;;;;;;;;;;;;17.15;37.22;101114.81;4896376;29;1971;-42